Time;durP1;ratioP1;P1;durP2;ratioP2;P2;SDS_P1;SDS_P2;PMS_P1;PMS_P2;Temp;Humidity;BMP_temperature;BMP_pressure;BME280_temperature;BME280_humidity;BME280_pressure;Samples;Min_cycle;Max_cycle;Signal;HPM_P1;HPM_P2
2022/06/21 00:00:50;;;;;;;7.22;2.15;;;15.50;93.40;;;;;;5031246;28;20030;-77
2022/06/21 00:03:22;;;;;;;8.80;2.47;;;15.50;93.60;;;;;;5031640;28;20075;-78
2022/06/21 00:05:50;;;;;;;10.50;2.35;;;15.50;93.60;;;;;;5031579;28;20033;-78
2022/06/21 00:08:22;;;;;;;9.50;2.72;;;15.40;93.60;;;;;;5031928;28;20029;-77
2022/06/21 00:10:48;;;;;;;9.15;2.17;;;15.40;93.40;;;;;;5031666;28;20018;-77
2022/06/21 00:13:20;;;;;;;8.65;2.58;;;15.40;93.40;;;;;;5031367;28;20024;-76
2022/06/21 00:15:50;;;;;;;9.23;2.28;;;15.40;93.50;;;;;;5031980;28;20061;-77
2022/06/21 00:18:18;;;;;;;6.93;2.00;;;15.30;93.60;;;;;;5030296;28;20044;-76
2022/06/21 00:20:45;;;;;;;8.23;2.20;;;15.20;93.80;;;;;;5030217;28;20375;-76
2022/06/21 00:23:14;;;;;;;8.32;2.03;;;15.10;93.90;;;;;;5030449;28;20187;-76
2022/06/21 00:25:41;;;;;;;10.30;2.50;;;15.10;94.00;;;;;;5031313;28;20478;-76
2022/06/21 00:28:06;;;;;;;10.95;2.45;;;15.10;94.20;;;;;;5031285;28;20033;-77
2022/06/21 00:30:32;;;;;;;5.65;2.00;;;15.00;94.30;;;;;;5031615;28;20024;-76
2022/06/21 00:32:58;;;;;;;8.50;2.42;;;15.00;94.40;;;;;;5031199;28;20034;-77
2022/06/21 00:35:25;;;;;;;6.03;2.08;;;14.90;94.50;;;;;;5030899;28;20168;-76
2022/06/21 00:37:52;;;;;;;9.20;2.10;;;14.90;94.70;;;;;;5031108;28;20033;-76
2022/06/21 00:40:29;;;;;;;7.53;2.42;;;14.90;94.70;;;;;;5031164;28;20045;-76
2022/06/21 00:43:09;;;;;;;3.33;2.22;;;14.90;94.60;;;;;;5031582;28;20101;-75
2022/06/21 00:45:44;;;;;;;4.32;2.10;;;15.00;94.50;;;;;;5031114;28;20107;-76
2022/06/21 00:48:36;;;;;;;8.73;2.70;;;14.90;94.60;;;;;;5030958;28;20367;-75
2022/06/21 00:51:25;;;;;;;13.35;3.05;;;14.90;95.00;;;;;;5030891;28;20026;-76
2022/06/21 00:53:56;;;;;;;9.85;2.50;;;14.80;94.80;;;;;;5030879;28;20025;-75
2022/06/21 00:56:34;;;;;;;10.30;2.38;;;14.90;94.80;;;;;;5029888;28;20060;-75
2022/06/21 00:59:28;;;;;;;8.38;2.70;;;14.80;94.80;;;;;;5029939;28;20088;-76
2022/06/21 01:02:15;;;;;;;11.10;2.60;;;14.80;94.90;;;;;;5030688;28;20029;-76
2022/06/21 01:04:45;;;;;;;9.10;2.42;;;14.80;94.90;;;;;;5030428;28;20040;-76
2022/06/21 01:07:12;;;;;;;6.18;2.17;;;14.80;94.90;;;;;;5030815;28;20108;-76
2022/06/21 01:10:03;;;;;;;21.48;3.38;;;14.80;95.00;;;;;;5030095;28;20049;-76
2022/06/21 01:12:42;;;;;;;6.72;2.50;;;14.70;95.20;;;;;;5030161;28;20034;-76
2022/06/21 01:15:13;;;;;;;10.75;3.03;;;14.60;95.40;;;;;;5030677;28;20034;-77
2022/06/21 01:17:40;;;;;;;8.60;2.17;;;14.60;95.50;;;;;;5030622;28;20029;-77
2022/06/21 01:20:12;;;;;;;6.07;2.67;;;14.60;95.30;;;;;;5029641;28;20367;-77
2022/06/21 01:23:06;;;;;;;11.55;3.17;;;14.60;95.40;;;;;;5030375;28;20246;-77
2022/06/21 01:25:49;;;;;;;8.98;2.85;;;14.40;95.70;;;;;;5030257;28;20041;-76
2022/06/21 01:28:15;;;;;;;11.65;2.45;;;14.40;95.90;;;;;;5030517;28;20025;-78
2022/06/21 01:30:47;;;;;;;16.85;3.13;;;14.50;95.80;;;;;;5029855;28;20083;-76
2022/06/21 01:33:16;;;;;;;10.60;2.85;;;14.50;95.70;;;;;;5029079;28;20112;-76
2022/06/21 01:35:54;;;;;;;8.77;2.95;;;14.50;95.80;;;;;;5021227;28;20042;-76
2022/06/21 01:38:27;;;;;;;7.90;2.60;;;14.50;95.70;;;;;;5010398;28;20038;-78
2022/06/21 01:40:57;;;;;;;12.65;3.08;;;14.50;95.70;;;;;;5009512;28;20396;-76
2022/06/21 01:43:27;;;;;;;9.90;2.97;;;14.40;96.00;;;;;;5010577;28;20376;-77
2022/06/21 01:46:04;;;;;;;9.73;2.95;;;14.40;96.10;;;;;;5009989;28;20064;-77
2022/06/21 01:48:37;;;;;;;8.90;3.15;;;14.20;96.30;;;;;;5009699;28;20459;-77
2022/06/21 01:51:13;;;;;;;9.07;2.72;;;14.20;96.40;;;;;;5010510;28;20034;-77
2022/06/21 01:53:39;;;;;;;13.45;2.55;;;14.30;96.20;;;;;;5010443;28;20065;-77
2022/06/21 01:56:13;;;;;;;10.65;3.13;;;14.40;96.20;;;;;;5010513;28;20121;-76
2022/06/21 01:58:43;;;;;;;9.63;2.95;;;14.60;95.80;;;;;;5010462;28;20026;-76
2022/06/21 02:01:17;;;;;;;8.13;2.75;;;14.60;95.90;;;;;;5010409;28;20115;-77
2022/06/21 02:03:45;;;;;;;11.93;2.90;;;14.60;95.90;;;;;;5010870;28;20029;-77
2022/06/21 02:06:14;;;;;;;11.10;3.17;;;14.60;95.80;;;;;;5010922;28;20034;-77
2022/06/21 02:08:52;;;;;;;6.90;2.80;;;14.40;96.10;;;;;;5010416;28;20137;-77
2022/06/21 02:11:23;;;;;;;8.98;2.42;;;14.40;96.20;;;;;;5009217;28;20133;-76
2022/06/21 02:16:42;;;;;;;10.55;2.60;;;14.40;96.30;;;;;;5010447;28;20115;-76
2022/06/21 02:19:14;;;;;;;14.13;3.00;;;14.40;96.20;;;;;;5010952;28;20026;-77
2022/06/21 02:21:41;;;;;;;8.25;2.25;;;14.20;96.40;;;;;;5014349;28;20502;-76
2022/06/21 02:24:11;;;;;;;8.60;2.67;;;14.30;96.40;;;;;;5013971;28;20180;-76
2022/06/21 02:26:38;;;;;;;11.25;2.83;;;14.30;96.40;;;;;;5013821;28;20482;-77
2022/06/21 02:29:04;;;;;;;12.32;2.70;;;14.30;96.30;;;;;;5013728;28;20507;-77
2022/06/21 02:31:31;;;;;;;13.57;2.90;;;14.40;96.40;;;;;;5013783;28;20038;-77
2022/06/21 02:34:03;;;;;;;9.68;2.80;;;14.30;96.40;;;;;;5013864;28;20499;-77
2022/06/21 02:36:39;;;;;;;12.98;3.00;;;14.20;96.40;;;;;;5012813;28;20052;-77
2022/06/21 02:39:07;;;;;;;;;;;14.20;96.50;;;;;;5014237;28;20049;-77
2022/06/21 02:41:38;;;;;;;12.63;2.85;;;14.20;96.50;;;;;;5015760;28;19916;-77
2022/06/21 02:44:27;;;;;;;15.88;2.72;;;14.10;96.60;;;;;;5016095;28;20070;-77
2022/06/21 02:46:58;;;;;;;11.20;2.45;;;14.20;96.50;;;;;;5012319;28;20038;-75
2022/06/21 02:49:34;;;;;;;9.18;2.63;;;14.10;96.50;;;;;;5013680;28;20054;-75
2022/06/21 02:52:11;;;;;;;7.85;2.38;;;14.10;96.60;;;;;;5012331;28;20125;-75
2022/06/21 02:54:45;;;;;;;10.57;2.83;;;14.00;96.60;;;;;;5013917;28;20061;-76
2022/06/21 02:57:24;;;;;;;7.50;2.78;;;14.00;96.80;;;;;;5013340;28;20077;-76
2022/06/21 02:59:51;;;;;;;10.93;2.33;;;14.00;96.80;;;;;;5013332;28;20423;-76
2022/06/21 03:02:22;;;;;;;14.63;2.75;;;14.10;96.70;;;;;;5013314;28;20119;-77
2022/06/21 03:04:54;;;;;;;9.80;3.00;;;14.00;96.70;;;;;;5013049;28;20491;-75
2022/06/21 03:07:28;;;;;;;9.13;3.03;;;14.00;96.60;;;;;;5013080;28;20044;-76
2022/06/21 03:09:54;;;;;;;10.02;2.47;;;14.00;96.50;;;;;;5013423;28;20033;-76
2022/06/21 03:12:27;;;;;;;7.82;2.50;;;14.10;96.40;;;;;;5013063;28;20045;-75
2022/06/21 03:14:59;;;;;;;19.15;3.35;;;14.00;96.50;;;;;;5011954;28;20034;-76
2022/06/21 03:17:35;;;;;;;9.05;2.88;;;13.90;96.60;;;;;;5011723;28;20091;-76
2022/06/21 03:20:01;;;;;;;17.58;3.47;;;13.90;96.70;;;;;;5011648;28;20341;-76
2022/06/21 03:22:32;;;;;;;14.20;3.28;;;13.80;96.80;;;;;;5012591;28;20030;-78
2022/06/21 03:25:00;;;;;;;9.93;2.53;;;13.90;96.80;;;;;;5012086;28;20061;-78
2022/06/21 03:27:52;;;;;;;10.20;2.57;;;13.90;96.80;;;;;;5012763;28;20046;-77
2022/06/21 03:30:21;;;;;;;10.55;3.08;;;13.90;96.70;;;;;;5012218;28;20109;-76
2022/06/21 03:32:49;;;;;;;9.45;2.58;;;13.90;96.80;;;;;;5012207;28;20490;-77
2022/06/21 03:35:16;;;;;;;8.07;3.00;;;13.90;96.90;;;;;;5011236;28;20060;-76
2022/06/21 03:37:42;;;;;;;9.98;3.13;;;13.80;97.00;;;;;;5011367;28;20065;-75
2022/06/21 03:42:57;;;;;;;10.90;2.60;;;13.80;97.00;;;;;;5012937;28;20088;-76
2022/06/21 03:45:29;;;;;;;17.42;3.05;;;13.80;97.20;;;;;;5011373;28;20073;-75
2022/06/21 03:48:26;;;;;;;18.85;2.97;;;13.70;97.30;;;;;;5012319;28;20045;-76
2022/06/21 03:50:59;;;;;;;13.88;3.13;;;13.70;97.50;;;;;;5012141;28;20026;-76
2022/06/21 03:53:40;;;;;;;12.93;2.92;;;13.80;97.50;;;;;;5012140;28;20474;-76
2022/06/21 03:56:21;;;;;;;8.43;2.88;;;13.80;97.60;;;;;;5012156;28;20053;-75
2022/06/21 03:58:54;;;;;;;14.68;3.65;;;13.80;97.60;;;;;;5011915;28;20037;-77
2022/06/21 04:01:35;;;;;;;10.93;2.78;;;13.90;97.50;;;;;;5011964;28;20045;-77
2022/06/21 04:04:04;;;;;;;16.63;3.00;;;13.80;97.50;;;;;;5012050;28;20034;-76
2022/06/21 04:06:52;;;;;;;8.70;2.63;;;13.80;97.60;;;;;;5012548;28;20057;-77
2022/06/21 04:09:37;;;;;;;10.45;3.13;;;13.90;97.50;;;;;;5011926;28;20030;-77
2022/06/21 04:12:13;;;;;;;10.57;2.95;;;13.90;97.60;;;;;;5011715;28;20175;-78
2022/06/21 04:15:12;;;;;;;13.45;3.33;;;13.70;97.80;;;;;;5010618;28;20022;-77
2022/06/21 04:17:41;;;;;;;11.75;3.45;;;13.70;98.00;;;;;;5015135;28;20045;-76
2022/06/21 04:20:17;;;;;;;12.55;2.85;;;13.70;98.00;;;;;;5011640;28;20034;-77
2022/06/21 04:22:50;;;;;;;8.68;3.25;;;13.80;97.80;;;;;;5010657;28;20415;-76
2022/06/21 04:25:37;;;;;;;9.50;2.78;;;13.90;97.70;;;;;;5010363;28;20033;-77
2022/06/21 04:28:13;;;;;;;13.75;3.42;;;13.90;97.50;;;;;;5011455;28;20010;-77
2022/06/21 04:31:04;;;;;;;10.18;2.78;;;13.90;97.50;;;;;;5011907;28;20075;-77
2022/06/21 04:33:58;;;;;;;19.63;3.58;;;14.00;97.40;;;;;;5010324;28;20129;-77
2022/06/21 04:36:35;;;;;;;10.00;3.10;;;14.10;97.50;;;;;;5011573;28;20038;-77
2022/06/21 04:39:15;;;;;;;15.25;3.20;;;14.00;97.40;;;;;;5011334;28;20044;-76
2022/06/21 04:41:53;;;;;;;8.32;2.97;;;14.10;97.50;;;;;;5010992;28;20041;-77
2022/06/21 04:44:28;;;;;;;10.30;2.80;;;14.10;97.40;;;;;;5010326;28;20407;-77
2022/06/21 04:47:17;;;;;;;12.45;3.33;;;14.20;97.40;;;;;;5010896;28;20395;-78
2022/06/21 04:49:53;;;;;;;12.77;3.15;;;14.30;97.30;;;;;;5011156;28;20034;-78
2022/06/21 04:52:41;;;;;;;16.42;3.40;;;14.30;97.20;;;;;;5009939;28;20049;-75
2022/06/21 04:55:15;;;;;;;9.43;2.95;;;14.20;97.20;;;;;;5011542;28;20026;-75
2022/06/21 04:57:41;;;;;;;12.23;2.67;;;14.30;97.20;;;;;;5011846;28;20022;-76
2022/06/21 05:00:14;;;;;;;8.93;3.38;;;14.20;97.20;;;;;;5010842;28;20034;-77
2022/06/21 05:02:44;;;;;;;16.27;3.10;;;14.20;97.30;;;;;;5011083;28;20049;-76
2022/06/21 05:05:25;;;;;;;8.75;2.95;;;14.20;97.30;;;;;;5011220;28;20041;-77
2022/06/21 05:07:56;;;;;;;14.27;3.47;;;14.10;97.50;;;;;;5011236;28;20018;-76
2022/06/21 05:10:34;;;;;;;12.50;3.15;;;14.20;97.40;;;;;;5010309;28;20029;-77
2022/06/21 05:13:04;;;;;;;15.27;3.40;;;14.30;97.50;;;;;;5011405;28;20049;-77
2022/06/21 05:15:39;;;;;;;11.65;2.72;;;14.40;97.50;;;;;;5011703;28;20100;-77
2022/06/21 05:18:17;;;;;;;16.92;3.17;;;14.40;97.30;;;;;;5010879;28;20242;-76
2022/06/21 05:21:00;;;;;;;21.07;3.40;;;14.40;97.30;;;;;;5009980;28;20191;-77
2022/06/21 05:23:27;;;;;;;12.02;2.97;;;14.50;97.30;;;;;;5009933;28;20030;-75
2022/06/21 05:25:53;;;;;;;16.88;3.05;;;14.50;97.20;;;;;;5010813;28;20120;-77
2022/06/21 05:28:35;;;;;;;11.20;2.65;;;14.60;97.10;;;;;;5010498;28;20472;-74
2022/06/21 05:31:20;;;;;;;10.85;3.10;;;14.70;97.00;;;;;;5010579;28;20030;-75
2022/06/21 05:33:58;;;;;;;14.68;2.88;;;14.70;96.90;;;;;;5010980;28;20057;-75
2022/06/21 05:36:37;;;;;;;11.13;2.97;;;14.70;97.00;;;;;;5009443;28;20128;-75
2022/06/21 05:39:11;;;;;;;13.65;3.10;;;14.80;96.80;;;;;;5010493;28;20314;-76
2022/06/21 05:41:43;;;;;;;13.32;2.78;;;14.80;96.70;;;;;;5010495;28;20045;-75
2022/06/21 05:44:08;;;;;;;21.67;4.05;;;15.00;96.80;;;;;;5009622;28;20036;-75
2022/06/21 05:46:44;;;;;;;8.25;1.88;;;14.90;96.60;;;;;;5010296;28;20145;-75
2022/06/21 05:49:20;;;;;;;11.93;2.67;;;14.90;96.70;;;;;;5009402;28;20095;-75
2022/06/21 05:51:47;;;;;;;10.57;3.15;;;15.00;96.60;;;;;;5010465;28;20040;-76
2022/06/21 05:54:17;;;;;;;17.83;3.20;;;15.00;96.50;;;;;;5011149;28;20484;-75
2022/06/21 05:56:43;;;;;;;15.85;3.08;;;15.10;96.50;;;;;;5014118;28;20048;-76
2022/06/21 05:59:15;;;;;;;10.88;2.63;;;15.30;96.60;;;;;;5014225;28;20037;-75
2022/06/21 06:02:12;;;;;;;13.90;2.63;;;15.50;96.40;;;;;;5014377;28;20456;-76
2022/06/21 06:04:44;;;;;;;12.20;2.97;;;15.70;96.30;;;;;;5013954;28;20033;-74
2022/06/21 06:07:24;;;;;;;10.05;2.53;;;15.50;95.80;;;;;;5012818;28;20393;-75
2022/06/21 06:09:54;;;;;;;24.80;3.70;;;15.50;95.90;;;;;;5014802;28;20109;-75
2022/06/21 06:12:22;;;;;;;11.25;2.88;;;15.50;95.80;;;;;;5012980;28;20029;-75
2022/06/21 06:15:07;;;;;;;15.20;3.25;;;15.70;95.80;;;;;;5013962;28;20026;-75
2022/06/21 06:17:44;;;;;;;14.63;2.33;;;15.70;95.70;;;;;;5014129;28;20467;-76
2022/06/21 06:20:29;;;;;;;9.27;2.57;;;15.70;95.60;;;;;;5013548;28;20041;-75
2022/06/21 06:23:44;;;;;;;15.40;3.08;;;15.70;95.50;;;;;;5013707;28;20268;-75
2022/06/21 06:26:16;;;;;;;16.58;3.28;;;15.50;95.90;;;;;;5020934;28;20049;-74
2022/06/21 06:28:47;;;;;;;12.77;2.80;;;15.60;95.80;;;;;;5013557;28;20080;-75
2022/06/21 06:31:51;;;;;;;12.43;3.42;;;15.70;95.60;;;;;;5012542;28;20110;-76
2022/06/21 06:34:24;;;;;;;14.82;2.80;;;15.90;95.60;;;;;;5013509;28;20050;-75
2022/06/21 06:36:56;;;;;;;11.35;2.70;;;16.00;95.30;;;;;;5012857;28;20084;-75
2022/06/21 06:39:29;;;;;;;14.40;3.17;;;16.00;95.20;;;;;;5012391;28;20026;-76
2022/06/21 06:42:11;;;;;;;11.68;3.33;;;16.10;94.90;;;;;;5013607;28;20034;-76
2022/06/21 06:44:50;;;;;;;15.93;4.85;;;16.20;94.80;;;;;;5013226;28;20044;-77
2022/06/21 06:47:28;;;;;;;10.05;3.10;;;16.40;94.80;;;;;;5013195;28;20133;-78
2022/06/21 06:50:01;;;;;;;;;;;16.50;94.60;;;;;;5012574;28;20091;-75
2022/06/21 06:52:34;;;;;;;12.48;2.83;;;16.50;94.30;;;;;;5013381;28;19909;-76
2022/06/21 06:55:03;;;;;;;17.67;3.60;;;16.50;94.20;;;;;;5012306;28;20105;-77
2022/06/21 06:57:43;;;;;;;10.60;3.05;;;16.40;94.40;;;;;;5013913;28;20109;-75
2022/06/21 07:00:15;;;;;;;13.77;3.45;;;16.50;94.30;;;;;;5012134;28;20361;-78
2022/06/21 07:02:54;;;;;;;13.80;3.53;;;16.40;94.40;;;;;;5014482;28;20030;-75
2022/06/21 07:05:29;;;;;;;8.23;2.55;;;16.50;94.50;;;;;;5014249;28;20034;-76
2022/06/21 07:08:17;;;;;;;12.32;2.22;;;16.60;94.20;;;;;;5014228;28;20081;-75
2022/06/21 07:10:47;;;;;;;11.50;2.22;;;16.50;94.50;;;;;;5023058;28;20033;-76
2022/06/21 07:13:13;;;;;;;10.10;2.22;;;16.60;94.30;;;;;;5013053;28;20022;-74
2022/06/21 07:15:44;;;;;;;19.95;3.33;;;16.70;94.30;;;;;;5012611;28;20018;-76
2022/06/21 07:18:31;;;;;;;14.98;2.75;;;16.80;94.10;;;;;;5013088;28;20435;-75
2022/06/21 07:20:59;;;;;;;16.05;2.85;;;16.80;93.90;;;;;;5013609;28;20435;-75
2022/06/21 07:23:27;;;;;;;7.03;1.98;;;16.90;93.70;;;;;;5013602;28;20038;-75
2022/06/21 07:26:28;;;;;;;12.38;2.42;;;16.80;93.30;;;;;;5013115;28;20097;-76
2022/06/21 07:29:13;;;;;;;11.77;2.03;;;16.70;93.30;;;;;;5012625;28;20030;-75
2022/06/21 07:31:51;;;;;;;11.02;1.90;;;16.80;93.30;;;;;;5013835;28;20026;-74
2022/06/21 07:34:27;;;;;;;11.52;2.63;;;16.80;93.30;;;;;;5012509;28;20042;-74
2022/06/21 07:37:04;;;;;;;15.05;2.42;;;17.00;93.30;;;;;;5014406;28;20097;-75
2022/06/21 07:39:43;;;;;;;14.05;2.25;;;17.10;92.90;;;;;;5013748;28;20133;-75
2022/06/21 07:42:15;;;;;;;15.10;2.05;;;17.20;92.70;;;;;;5012999;28;20128;-76
2022/06/21 07:44:49;;;;;;;9.27;1.83;;;17.40;92.30;;;;;;5012879;28;20357;-76
2022/06/21 07:47:23;;;;;;;8.95;1.90;;;17.50;92.00;;;;;;5011561;28;20069;-76
2022/06/21 07:49:58;;;;;;;10.73;2.42;;;17.80;91.80;;;;;;5012238;28;20031;-76
2022/06/21 07:52:26;;;;;;;11.15;2.20;;;17.80;91.10;;;;;;5013146;28;20038;-75
2022/06/21 07:54:58;;;;;;;8.23;1.88;;;17.60;91.30;;;;;;5013625;28;20034;-75
2022/06/21 07:57:32;;;;;;;11.15;2.45;;;17.80;90.90;;;;;;5013388;28;20042;-75
2022/06/21 08:00:13;;;;;;;10.73;2.50;;;17.80;90.50;;;;;;5012834;28;20041;-77
2022/06/21 08:08:39;;;;;;;8.13;1.83;;;18.60;89.70;;;;;;5012926;28;20092;-75
2022/06/21 08:11:13;;;;;;;15.65;3.00;;;18.90;89.10;;;;;;5012742;28;20062;-76
2022/06/21 08:13:40;;;;;;;13.23;2.20;;;19.30;87.50;;;;;;5012561;28;20050;-76
2022/06/21 08:16:21;;;;;;;11.25;2.72;;;19.40;86.40;;;;;;5011541;28;20025;-75
2022/06/21 08:18:59;;;;;;;15.77;2.08;;;19.30;85.70;;;;;;5012492;28;20041;-75
2022/06/21 08:21:31;;;;;;;5.40;1.52;;;19.70;86.00;;;;;;5011443;28;20037;-74
2022/06/21 08:24:07;;;;;;;10.82;2.25;;;20.20;85.30;;;;;;5011703;28;20491;-76
2022/06/21 08:26:45;;;;;;;12.57;2.05;;;20.60;81.30;;;;;;5012364;28;20435;-76
2022/06/21 08:29:18;;;;;;;11.70;2.63;;;20.40;80.70;;;;;;5011997;28;20030;-74
2022/06/21 08:31:50;;;;;;;12.57;1.83;;;20.30;81.00;;;;;;5011386;28;20068;-74
2022/06/21 08:34:25;;;;;;;8.32;1.90;;;20.40;81.30;;;;;;5012652;28;20038;-75
2022/06/21 08:36:55;;;;;;;7.05;1.88;;;20.90;80.20;;;;;;5011837;28;20112;-74
2022/06/21 08:39:38;;;;;;;7.38;1.73;;;21.60;80.00;;;;;;5010542;28;20046;-73
2022/06/21 08:42:08;;;;;;;8.80;1.73;;;22.10;79.20;;;;;;5011225;28;20067;-74
2022/06/21 08:47:51;;;;;;;8.65;1.92;;;22.60;76.60;;;;;;5011092;28;20108;-73
2022/06/21 08:50:50;;;;;;;13.10;2.67;;;22.10;75.10;;;;;;5011034;28;20060;-74
2022/06/21 08:53:38;;;;;;;9.35;1.88;;;22.40;76.00;;;;;;5011502;28;20038;-74
2022/06/21 08:56:08;;;;;;;9.23;1.88;;;23.00;73.30;;;;;;5011226;28;20038;-75
2022/06/21 08:59:26;;;;;;;8.80;2.00;;;22.90;72.70;;;;;;5012010;28;20029;-75
2022/06/21 09:02:00;;;;;;;7.30;1.67;;;23.50;70.30;;;;;;5010464;28;20026;-75
2022/06/21 09:04:50;;;;;;;7.05;1.52;;;23.80;71.60;;;;;;5011265;28;20468;-74
2022/06/21 09:07:28;;;;;;;5.90;1.25;;;24.40;68.90;;;;;;5010222;28;20112;-75
2022/06/21 09:10:06;;;;;;;6.60;1.73;;;24.60;67.40;;;;;;5010934;28;20025;-75
2022/06/21 09:13:03;;;;;;;5.70;1.40;;;24.50;66.90;;;;;;5010817;28;20136;-74
2022/06/21 09:15:47;;;;;;;7.95;1.30;;;23.60;67.70;;;;;;5011074;28;20371;-75
2022/06/21 09:18:45;;;;;;;12.35;1.73;;;23.80;67.10;;;;;;5010138;28;20034;-73
2022/06/21 09:21:44;;;;;;;12.20;1.85;;;23.80;66.80;;;;;;5011300;28;20042;-74
2022/06/21 09:24:31;;;;;;;7.22;1.52;;;24.20;67.90;;;;;;5011565;28;20062;-73
2022/06/21 09:27:15;;;;;;;7.32;1.60;;;23.60;67.10;;;;;;5010187;28;20057;-73
2022/06/21 09:30:08;;;;;;;9.60;1.65;;;23.30;67.70;;;;;;5013208;28;20314;-73
2022/06/21 09:32:40;;;;;;;6.95;1.75;;;22.60;68.20;;;;;;5015293;28;20464;-74
2022/06/21 09:35:29;;;;;;;6.90;1.60;;;22.60;67.80;;;;;;5013370;28;20054;-73
2022/06/21 09:38:10;;;;;;;10.85;2.05;;;22.80;67.90;;;;;;5014691;28;20030;-73
2022/06/21 09:40:49;;;;;;;9.98;2.20;;;22.70;67.80;;;;;;5014735;28;20087;-73
2022/06/21 09:43:24;;;;;;;5.70;1.60;;;22.80;67.60;;;;;;5014795;28;20034;-74
2022/06/21 09:46:04;;;;;;;9.73;1.42;;;23.00;67.60;;;;;;5014820;28;20284;-74
2022/06/21 09:48:51;;;;;;;7.35;1.60;;;22.80;67.90;;;;;;5014496;28;20052;-74
2022/06/21 09:51:25;;;;;;;10.85;1.85;;;22.70;68.70;;;;;;5014436;28;20037;-76
2022/06/21 09:54:09;;;;;;;11.25;1.98;;;22.60;69.20;;;;;;5014225;28;20173;-74
2022/06/21 09:56:38;;;;;;;5.70;1.48;;;22.60;69.30;;;;;;5014713;28;20140;-74
2022/06/21 09:59:15;;;;;;;10.27;1.88;;;22.70;70.50;;;;;;5016295;28;20030;-74
2022/06/21 10:01:41;;;;;;;;;;;23.00;68.80;;;;;;5014996;28;20064;-74
2022/06/21 10:04:17;;;;;;;7.28;1.42;;;22.60;68.40;;;;;;5015554;28;20371;-73
2022/06/21 10:06:46;;;;;;;11.00;2.03;;;22.50;68.10;;;;;;5015269;28;20036;-74
2022/06/21 10:09:32;;;;;;;7.22;2.03;;;22.40;68.40;;;;;;5014003;28;20083;-75
2022/06/21 10:12:18;;;;;;;7.65;1.77;;;22.50;68.40;;;;;;5013925;28;20037;-73
2022/06/21 10:15:17;;;;;;;9.80;2.03;;;22.60;67.50;;;;;;5012944;28;20256;-74
2022/06/21 10:17:57;;;;;;;6.22;1.70;;;22.60;67.50;;;;;;5019587;28;20099;-74
2022/06/21 10:20:39;;;;;;;10.30;1.98;;;22.90;67.60;;;;;;5012769;28;20376;-73
2022/06/21 10:23:15;;;;;;;6.03;1.23;;;22.90;66.40;;;;;;5013795;28;20095;-75
2022/06/21 10:26:08;;;;;;;6.07;1.50;;;22.90;64.60;;;;;;5013588;28;20041;-75
2022/06/21 10:28:43;;;;;;;8.85;1.58;;;23.10;64.30;;;;;;5013786;28;20030;-74
2022/06/21 10:31:17;;;;;;;4.88;1.58;;;23.10;63.70;;;;;;5013732;28;20329;-73
2022/06/21 10:34:01;;;;;;;4.88;1.42;;;23.10;64.80;;;;;;5013712;28;20081;-74
2022/06/21 10:36:44;;;;;;;8.73;1.55;;;23.10;65.40;;;;;;5014921;28;20121;-74
2022/06/21 10:39:28;;;;;;;8.38;1.83;;;22.80;64.30;;;;;;5014135;28;20379;-75
2022/06/21 10:45:32;;;;;;;6.18;1.63;;;23.10;64.40;;;;;;5013318;28;20037;-75
2022/06/21 10:48:49;;;;;;;4.85;1.45;;;23.70;63.50;;;;;;5013181;28;20045;-75
2022/06/21 10:51:52;;;;;;;4.00;1.25;;;23.90;62.80;;;;;;5004272;28;20499;-75
2022/06/21 10:54:53;;;;;;;5.40;1.20;;;24.00;62.10;;;;;;4992699;28;20418;-74
2022/06/21 10:57:48;;;;;;;4.93;1.42;;;24.00;61.70;;;;;;5012241;28;20124;-74
2022/06/21 11:03:21;;;;;;;14.40;1.80;;;23.90;61.60;;;;;;5012885;28;20069;-73
2022/06/21 11:06:24;;;;;;;7.53;1.60;;;23.70;60.30;;;;;;5012955;28;20529;-75
2022/06/21 11:09:05;;;;;;;10.70;1.55;;;23.60;62.00;;;;;;5012993;28;20121;-74
2022/06/21 11:11:50;;;;;;;11.25;2.28;;;23.90;61.60;;;;;;5012005;28;20365;-75
2022/06/21 11:14:50;;;;;;;7.35;1.30;;;23.60;62.50;;;;;;5011724;28;20061;-74
2022/06/21 11:17:33;;;;;;;5.32;1.30;;;23.50;62.50;;;;;;5013380;28;20045;-74
2022/06/21 11:20:15;;;;;;;10.98;1.73;;;23.70;61.10;;;;;;5012493;28;20018;-73
2022/06/21 11:22:48;;;;;;;9.40;1.90;;;23.80;60.70;;;;;;5012686;28;20080;-74
2022/06/21 11:25:29;;;;;;;8.10;1.42;;;23.70;60.00;;;;;;5012416;28;20018;-74
2022/06/21 11:28:01;;;;;;;3.92;1.20;;;23.60;59.80;;;;;;5012129;28;20388;-73
2022/06/21 11:30:33;;;;;;;3.28;1.10;;;23.70;59.10;;;;;;5013351;28;20038;-74
2022/06/21 11:33:01;;;;;;;6.43;1.15;;;23.90;59.30;;;;;;5012629;28;20026;-73
2022/06/21 11:35:49;;;;;;;9.18;1.65;;;23.80;59.20;;;;;;5012675;28;20053;-74
2022/06/21 11:38:17;;;;;;;;;;;23.60;58.90;;;;;;5013014;28;20026;-74
2022/06/21 11:41:09;;;;;;;4.20;1.15;;;23.70;58.90;;;;;;5012434;28;19990;-75
2022/06/21 11:43:44;;;;;;;5.78;1.10;;;23.80;58.70;;;;;;5012147;28;20056;-75
2022/06/21 11:46:35;;;;;;;5.25;1.10;;;23.80;58.70;;;;;;5011166;28;20423;-74
2022/06/21 11:49:31;;;;;;;7.20;1.27;;;23.70;58.70;;;;;;5012128;28;20026;-75
2022/06/21 11:52:17;;;;;;;4.07;1.40;;;23.50;58.20;;;;;;5012008;28;20108;-75
2022/06/21 11:55:04;;;;;;;5.57;1.33;;;23.40;58.50;;;;;;5012666;28;20060;-75
2022/06/21 11:58:05;;;;;;;7.82;1.50;;;23.30;58.60;;;;;;5012939;28;20416;-76
2022/06/21 12:00:38;;;;;;;5.85;1.40;;;23.30;58.50;;;;;;5015666;28;20092;-75
2022/06/21 12:03:04;;;;;;;6.97;1.50;;;23.40;58.60;;;;;;5012086;28;20038;-75
2022/06/21 12:05:36;;;;;;;7.40;1.55;;;23.40;58.40;;;;;;5012047;28;20128;-75
2022/06/21 12:08:26;;;;;;;6.30;1.30;;;23.40;58.20;;;;;;5012085;28;20091;-74
2022/06/21 12:10:54;;;;;;;4.78;1.02;;;23.70;58.50;;;;;;5011235;28;20045;-73
2022/06/21 12:13:40;;;;;;;8.43;1.90;;;23.90;58.00;;;;;;5012152;28;20125;-73
2022/06/21 12:16:17;;;;;;;10.45;1.58;;;24.10;58.00;;;;;;5010319;28;20044;-74
2022/06/21 12:18:53;;;;;;;8.27;1.38;;;24.30;57.80;;;;;;5012261;28;20022;-73
2022/06/21 12:21:25;;;;;;;4.85;1.27;;;24.30;57.40;;;;;;5010619;28;20368;-74
2022/06/21 12:23:55;;;;;;;7.93;1.50;;;24.30;57.50;;;;;;5012150;28;20065;-74
2022/06/21 12:26:26;;;;;;;5.68;1.67;;;24.40;57.60;;;;;;5010397;28;20030;-74
2022/06/21 12:28:54;;;;;;;8.05;1.27;;;24.30;57.90;;;;;;5012227;28;20117;-74
2022/06/21 12:31:28;;;;;;;3.92;1.13;;;24.40;57.60;;;;;;5010949;28;20109;-74
2022/06/21 12:33:59;;;;;;;8.45;1.33;;;24.30;57.50;;;;;;5011072;28;20042;-74
2022/06/21 12:36:33;;;;;;;9.90;1.70;;;24.40;58.00;;;;;;5011961;28;20379;-75
2022/06/21 12:39:05;;;;;;;4.57;1.30;;;24.60;57.40;;;;;;5011893;28;20383;-76
2022/06/21 12:41:34;;;;;;;3.97;1.38;;;24.60;56.70;;;;;;5011412;28;20034;-75
2022/06/21 12:44:13;;;;;;;7.55;2.17;;;24.50;56.50;;;;;;5011615;28;20045;-75
2022/06/21 12:46:49;;;;;;;9.60;1.50;;;24.50;56.80;;;;;;5011471;28;20041;-74
2022/06/21 12:49:33;;;;;;;7.82;1.65;;;24.30;56.10;;;;;;5011664;28;20052;-74
2022/06/21 12:52:02;;;;;;;9.70;1.50;;;24.00;56.60;;;;;;5009803;28;20099;-74
2022/06/21 12:54:54;;;;;;;6.00;1.20;;;24.00;57.00;;;;;;5011882;28;20053;-74
2022/06/21 12:57:50;;;;;;;3.83;1.20;;;24.00;57.40;;;;;;5009994;28;20092;-75
2022/06/21 13:00:37;;;;;;;3.35;0.77;;;24.20;56.70;;;;;;5010573;28;20040;-72
2022/06/21 13:03:08;;;;;;;5.43;1.38;;;24.30;57.10;;;;;;5010896;28;20025;-74
2022/06/21 13:05:52;;;;;;;3.70;1.10;;;24.40;57.10;;;;;;5010930;28;20034;-74
2022/06/21 13:08:39;;;;;;;5.50;1.15;;;24.30;56.70;;;;;;5010591;28;20575;-72
2022/06/21 13:11:14;;;;;;;3.88;1.23;;;24.10;57.50;;;;;;5010885;28;20524;-73
2022/06/21 13:13:46;;;;;;;5.93;1.45;;;24.00;57.90;;;;;;5009722;28;20034;-72
2022/06/21 13:16:53;;;;;;;9.20;2.20;;;24.20;57.90;;;;;;4998116;28;20054;-71
2022/06/21 13:19:30;;;;;;;5.28;1.67;;;24.30;58.00;;;;;;5008664;28;20114;-72
2022/06/21 13:22:11;;;;;;;7.45;1.70;;;24.20;57.40;;;;;;5010750;28;20025;-73
2022/06/21 13:24:51;;;;;;;4.88;1.58;;;24.30;57.20;;;;;;5010804;28;20353;-72
2022/06/21 13:27:49;;;;;;;6.10;1.55;;;24.30;56.50;;;;;;5010741;28;20034;-71
2022/06/21 13:30:28;;;;;;;5.50;1.40;;;24.20;56.30;;;;;;5010653;28;20147;-72
2022/06/21 13:33:05;;;;;;;4.57;1.20;;;24.30;57.00;;;;;;5010774;28;20038;-72
2022/06/21 13:36:08;;;;;;;3.63;1.00;;;24.20;56.30;;;;;;5010710;28;20046;-72
2022/06/21 13:38:47;;;;;;;4.75;1.95;;;24.30;56.00;;;;;;5010825;28;20271;-72
2022/06/21 13:44:18;;;;;;;5.25;2.15;;;24.20;56.30;;;;;;5010622;28;20033;-72
2022/06/21 13:46:49;;;;;;;5.50;1.17;;;24.00;55.60;;;;;;5010528;28;20034;-73
2022/06/21 13:49:24;;;;;;;4.07;1.10;;;24.00;55.60;;;;;;5010878;28;20375;-71
2022/06/21 13:52:06;;;;;;;3.92;0.95;;;24.00;55.10;;;;;;5011387;28;20321;-72
2022/06/21 13:54:56;;;;;;;2.63;1.15;;;24.00;55.90;;;;;;5011198;28;20048;-72
2022/06/21 13:57:40;;;;;;;8.30;1.25;;;24.20;55.40;;;;;;5010563;28;20171;-73
2022/06/21 14:00:07;;;;;;;7.47;1.30;;;24.30;55.80;;;;;;5010678;28;20022;-72